Flight Track Log - Related Links

Times and Time Zones

All times are in EDT time to prevent confusion due to time zone crossing. See the MTN7303 flight status page for this flight to view local times or setup timezone preferences in your user account.

Time Position Orientation Groundspeed Altitude Reporting Facility
EDT Latitude Longitude Course Direction KTS MPH feet Rate Location/Type
Tue 11:28:18 PM 39.1833 -76.6333 38° Northeast 98 113 900  Level Potomac TRACON
Tue 11:29:24 PM 39.2000 -76.6167 38° Northeast 119 137 1,700 714 Climbing Potomac TRACON
Tue 11:30:24 PM 39.2333 -76.5833 38° Northeast 118 136 2,400 694 Climbing Potomac TRACON
Tue 11:31:25 PM 39.2500 -76.5500 57° Northeast 127 146 3,100 709 Climbing Potomac TRACON
Tue 11:32:31 PM 39.2833 -76.5167 38° Northeast 128 147 3,900 762 Climbing Potomac TRACON
Tue 11:33:31 PM 39.3000 -76.4833 57° Northeast 126 145 4,700 600 Climbing Potomac TRACON
Tue 11:34:31 PM 39.3333 -76.4500 38° Northeast 140 161 5,100 211 Climbing Potomac TRACON
Tue 11:35:25 PM 39.3500 -76.4167 57° Northeast 158 182 5,100  Level Potomac TRACON
Tue 11:36:25 PM 39.3833 -76.3833 38° Northeast 159 183 5,100 -29 Level Potomac TRACON
Tue 11:38:55 PM 39.4667 -76.2833 43° Northeast 153 176 5,000 -29 Descending Philadelphia TRACON
Tue 11:39:49 PM 39.4833 -76.2500 57° Northeast 151 174 5,000  Level Philadelphia TRACON
Tue 11:40:49 PM 39.5167 -76.2000 49° Northeast 149 171 5,000  Level Philadelphia TRACON
Tue 11:41:49 PM 39.5500 -76.1667 38° Northeast 149 171 5,000  Level Philadelphia TRACON
Tue 11:42:49 PM 39.5833 -76.1333 38° Northeast 147 169 5,000  Level Philadelphia TRACON
Tue 11:43:49 PM 39.6000 -76.0833 67° East 148 170 5,000  Level Philadelphia TRACON
Tue 11:44:49 PM 39.6333 -76.0500 38° Northeast 172 198 5,000  Level Philadelphia TRACON
Tue 11:45:49 PM 39.6667 -76.0000 49° Northeast 167 192 5,000  Level Philadelphia TRACON
Tue 11:46:49 PM 39.7000 -75.9667 38° Northeast 165 190 5,000  Level Philadelphia TRACON
Tue 11:47:49 PM 39.7333 -75.9167 49° Northeast 161 185 5,000  Level Philadelphia TRACON
Tue 11:48:50 PM 39.7667 -75.8833 38° Northeast 158 182 5,000  Level Philadelphia TRACON
Tue 11:49:50 PM 39.8000 -75.8333 49° Northeast 162 186 5,000  Level Philadelphia TRACON
Tue 11:50:50 PM 39.8333 -75.8000 38° Northeast 162 186 5,000  Level Philadelphia TRACON
Tue 11:51:50 PM 39.8500 -75.7500 67° East 161 185 5,000  Level Philadelphia TRACON
Tue 11:52:50 PM 39.8833 -75.7167 37° Northeast 162 186 5,000  Level Philadelphia TRACON
Tue 11:53:50 PM 39.9167 -75.6667 49° Northeast 160 184 5,000  Level Philadelphia TRACON
Tue 11:54:50 PM 39.9333 -75.6167 66° East 155 178 5,000  Level Philadelphia TRACON
Tue 11:55:50 PM 39.9667 -75.5667 49° Northeast 157 181 5,000  Level Philadelphia TRACON
Tue 11:56:50 PM 39.9833 -75.5167 66° East 156 180 5,000  Level Philadelphia TRACON
Tue 11:57:50 PM 40.0000 -75.4833 57° Northeast 153 176 5,000  Level Philadelphia TRACON
Tue 11:58:50 PM 40.0333 -75.4333 49° Northeast 153 176 5,000  Level Philadelphia TRACON
Tue 11:59:50 PM 40.0500 -75.3833 66° East 155 178 5,000  Level Philadelphia TRACON
Wed 12:00:50 AM 40.0667 -75.3333 66° East 154 177 5,000  Level Philadelphia TRACON
Wed 12:01:50 AM 40.0833 -75.2833 66° East 152 175 5,000  Level Philadelphia TRACON
Wed 12:02:50 AM 40.1167 -75.2333 49° Northeast 157 181 5,000  Level Philadelphia TRACON
Wed 12:03:50 AM 40.1333 -75.1833 66° East 156 180 5,000 44 Level Philadelphia TRACON
Wed 12:05:06 AM 40.1667 -75.1167 57° Northeast 158 182 5,100 42 Climbing New York TRACON
Wed 12:06:12 AM 40.1833 -75.0667 66° East 154 177 5,100  Level New York TRACON
Wed 12:07:06 AM 40.2000 -75.0333 57° Northeast 158 182 5,100  Level New York TRACON
Wed 12:08:18 AM 40.2333 -74.9667 57° Northeast 154 177 5,100  Level New York TRACON
Wed 12:09:18 AM 40.2500 -74.9167 66° East 157 181 5,100  Level New York TRACON
Wed 12:10:24 AM 40.2667 -74.8667 66° East 156 180 5,100  Level New York TRACON
Wed 12:11:24 AM 40.3000 -74.8167 49° Northeast 157 181 5,100  Level New York TRACON
Wed 12:12:24 AM 40.3167 -74.7667 66° East 158 182 5,100  Level New York TRACON
Wed 12:13:18 AM 40.3333 -74.7167 66° East 158 182 5,100 -316 Level New York TRACON
Wed 12:14:18 AM 40.3500 -74.6667 66° East 172 198 4,500 -650 Descending New York TRACON
Wed 12:15:18 AM 40.3833 -74.6167 49° Northeast 170 196 3,800 -737 Descending New York TRACON
Wed 12:16:12 AM 40.4000 -74.5667 66° East 169 194 3,100 -318 Descending New York TRACON
Wed 12:17:30 AM 40.4333 -74.5000 57° Northeast 152 175 3,100  Level New York TRACON
Wed 12:18:18 AM 40.4500 -74.4500 66° East 152 175 3,100  Level New York TRACON
Wed 12:19:18 AM 40.4667 -74.4000 66° East 152 175 3,100 -211 Level New York TRACON
Wed 12:20:12 AM 40.4833 -74.3667 57° Northeast 163 188 2,700 -526 Descending New York TRACON
Wed 12:21:12 AM 40.5000 -74.3000 72° East 168 193 2,100 -300 Descending New York TRACON
Wed 12:22:12 AM 40.5333 -74.2667 37° Northeast 164 189 2,100  Level New York TRACON
Wed 12:23:12 AM 40.5833 -74.2500 14° North 164 189 2,100 -350 Level New York TRACON
Wed 12:24:12 AM 40.6167 -74.2167 37° Northeast 172 198 1,400 -800 Descending New York TRACON
Wed 12:25:12 AM 40.6667 -74.1833 27° Northeast 169 194 500 -900 Descending New York TRACON
Wed 12:27:00 AM 40.6833 -74.1667 52° Northeast  Level FlightAware Approximate
Wed 12:34:00 AM 40.6925 -74.1687 52° Northeast  Level Estimated

Login

Don't have an account? Register now (free) for customized features, flight alerts, and more!